Keewatin, Canada
Current Conditions -  °F | °C
As of 6:00 PM on Wednesday 26 Nov 2014 (Local Time) from CYQK Reporting Station
Clear Clear  
Wind Chill: -18°   Ceiling: Unl
Heat Index: -6°   Visibility: 15mi
Dew Point: -11°   Wind: 6mph
Humidity: 77%   Direction: 330°NNW
Pressure: 30.4"   Gusts: NA
Location:  49.76°N, 94.56°W
Report Text: CYQK 270000Z 33005KT 15SM SKC M21/M24 A3040 RMK SLP343
Loading
Personal Weather Stations






























Interactive Weather Map New forecast layout! Learn more

10-Day Weather Forecast

Advertisements
Track Severe Weather on mobile